createdAt,value
2023-02-22T00:02:13.306Z,60.10
2023-02-22T00:04:41.441Z,60.17
2023-02-22T00:07:09.617Z,59.86
2023-02-22T00:09:37.592Z,60.01
2023-02-22T00:12:05.766Z,60.12
2023-02-22T00:14:33.772Z,59.89
2023-02-22T00:17:02.565Z,60.06
2023-02-22T00:19:31.324Z,59.80
2023-02-22T00:22:00.332Z,59.82
2023-02-22T00:24:29.640Z,59.70
2023-02-22T00:26:58.183Z,59.80
2023-02-22T00:29:26.864Z,59.78
2023-02-22T00:31:55.156Z,59.89
2023-02-22T00:34:24.402Z,59.69
2023-02-22T00:36:52.541Z,59.66
2023-02-22T00:39:20.797Z,59.77
2023-02-22T00:41:50.050Z,59.59
2023-02-22T00:44:18.262Z,59.58
2023-02-22T00:46:46.748Z,60.02
2023-02-22T00:49:17.069Z,60.22
2023-02-22T00:51:45.548Z,59.92
2023-02-22T00:54:14.655Z,59.94
2023-02-22T00:56:43.135Z,59.80
2023-02-22T00:59:11.609Z,59.74
2023-02-22T01:01:39.614Z,59.77
2023-02-22T01:04:07.869Z,59.53
2023-02-22T01:06:36.640Z,59.37
2023-02-22T01:09:05.236Z,59.44
2023-02-22T01:11:34.530Z,59.52
2023-02-22T01:14:02.602Z,59.50
2023-02-22T01:16:30.680Z,59.40
2023-02-22T01:19:01.506Z,59.63
2023-02-22T01:21:30.294Z,59.39
2023-02-22T01:23:58.257Z,59.07
2023-02-22T01:26:27.461Z,59.16
2023-02-22T01:28:55.389Z,59.18
2023-02-22T01:31:24.283Z,59.06
2023-02-22T01:33:52.421Z,59.16
2023-02-22T01:36:20.878Z,59.01
2023-02-22T01:38:48.865Z,59.14
2023-02-22T01:41:18.556Z,59.09
2023-02-22T01:43:46.717Z,59.09
2023-02-22T01:46:23.361Z,59.05
2023-02-22T01:48:56.900Z,59.12
2023-02-22T01:51:30.817Z,59.31
2023-02-22T01:54:07.164Z,59.17
2023-02-22T01:56:39.527Z,59.07
2023-02-22T01:59:11.537Z,58.99
2023-02-22T02:01:44.788Z,58.82
2023-02-22T02:04:19.621Z,59.12
2023-02-22T02:06:48.618Z,58.77
2023-02-22T02:09:31.854Z,58.74
2023-02-22T02:12:02.765Z,59.13
2023-02-22T02:14:32.368Z,58.94
2023-02-22T02:17:07.207Z,59.01
2023-02-22T02:20:08.560Z,58.60
2023-02-22T02:22:45.156Z,58.48
2023-02-22T02:25:32.388Z,58.07
2023-02-22T02:28:37.925Z,58.07
2023-02-22T02:31:41.618Z,58.00
2023-02-22T02:34:22.836Z,57.85
2023-02-22T02:37:33.736Z,57.91
2023-02-22T02:40:22.256Z,57.67
2023-02-22T02:43:27.594Z,57.67
2023-02-22T02:46:04.470Z,57.79
2023-02-22T02:48:35.511Z,57.64
2023-02-22T02:51:08.951Z,57.70
2023-02-22T02:53:41.230Z,57.75
2023-02-22T02:56:09.353Z,57.76
2023-02-22T02:58:49.189Z,57.74
2023-02-22T03:01:46.429Z,57.55
2023-02-22T03:04:15.130Z,57.66
2023-02-22T03:06:52.317Z,57.57
2023-02-22T03:09:49.498Z,57.67
2023-02-22T03:12:32.309Z,57.29
2023-02-22T03:15:22.692Z,57.37
2023-02-22T03:17:59.605Z,57.74
2023-02-22T03:20:50.778Z,57.66
2023-02-22T03:23:32.981Z,57.72
2023-02-22T03:26:16.423Z,57.74
2023-02-22T03:28:49.370Z,57.76
2023-02-22T03:31:23.704Z,58.12
2023-02-22T03:34:15.621Z,57.76
2023-02-22T03:36:50.062Z,57.97
2023-02-22T03:39:20.428Z,57.94
2023-02-22T03:41:51.511Z,57.99
2023-02-22T03:44:26.678Z,58.02
2023-02-22T03:46:57.647Z,58.11
2023-02-22T03:49:47.229Z,57.94
2023-02-22T03:52:15.826Z,57.77
2023-02-22T03:54:44.474Z,57.67
2023-02-22T03:57:22.592Z,57.98
2023-02-22T03:59:53.893Z,57.72
2023-02-22T04:02:23.910Z,57.39
2023-02-22T04:04:52.517Z,57.66
2023-02-22T04:07:20.595Z,57.89
2023-02-22T04:09:49.992Z,57.62
2023-02-22T04:12:18.174Z,57.69
2023-02-22T04:14:56.109Z,57.55
2023-02-22T04:17:24.561Z,57.88
2023-02-22T04:19:52.949Z,58.17
2023-02-22T04:22:22.956Z,57.95
2023-02-22T04:24:51.159Z,58.21
2023-02-22T04:27:19.507Z,58.50
2023-02-22T04:29:47.682Z,58.72
2023-02-22T04:32:16.687Z,58.65
2023-02-22T04:34:44.750Z,58.98
2023-02-22T04:37:13.121Z,59.53
2023-02-22T04:39:41.660Z,59.51
2023-02-22T04:42:10.815Z,59.78
2023-02-22T04:44:39.221Z,59.71
2023-02-22T04:47:07.250Z,59.81
2023-02-22T04:49:36.847Z,59.48
2023-02-22T04:52:06.050Z,59.86
2023-02-22T04:54:37.008Z,59.73
2023-02-22T04:57:05.295Z,59.83
2023-02-22T04:59:35.110Z,59.77
2023-02-22T05:02:03.829Z,59.63
2023-02-22T05:04:31.912Z,59.76
2023-02-22T05:07:00.033Z,59.59
2023-02-22T05:09:28.217Z,59.42
2023-02-22T05:11:56.165Z,59.50
2023-02-22T05:14:26.878Z,59.52
2023-02-22T05:17:00.701Z,59.37
2023-02-22T05:19:28.773Z,59.16
2023-02-22T05:21:56.750Z,59.21
2023-02-22T05:24:25.032Z,59.07
2023-02-22T05:26:53.508Z,58.87
2023-02-22T05:29:21.684Z,58.87
2023-02-22T05:31:49.837Z,59.01
2023-02-22T05:34:18.231Z,58.91
2023-02-22T05:36:46.713Z,59.19
2023-02-22T05:39:14.991Z,59.32
2023-02-22T05:41:43.268Z,58.93
2023-02-22T05:44:11.558Z,59.42
2023-02-22T05:46:39.702Z,59.15
2023-02-22T05:49:07.931Z,59.20
2023-02-22T05:51:36.291Z,58.98
2023-02-22T05:54:04.483Z,59.11
2023-02-22T05:56:32.826Z,59.33
2023-02-22T05:59:01.106Z,59.11
2023-02-22T06:01:29.271Z,58.76
2023-02-22T06:03:57.304Z,58.90
2023-02-22T06:06:25.255Z,58.73
2023-02-22T06:08:53.347Z,58.78
2023-02-22T06:11:21.451Z,58.68
2023-02-22T06:13:51.750Z,58.22
2023-02-22T06:16:21.638Z,58.19
2023-02-22T06:18:50.709Z,57.76
2023-02-22T06:21:19.161Z,58.04
2023-02-22T06:23:47.662Z,57.75
2023-02-22T06:26:17.800Z,57.50
2023-02-22T06:28:49.391Z,57.53
2023-02-22T06:31:17.670Z,56.79
2023-02-22T06:33:45.925Z,56.63
2023-02-22T06:36:14.180Z,56.55
2023-02-22T06:38:42.714Z,56.30
2023-02-22T06:41:10.695Z,55.84
2023-02-22T06:43:38.669Z,55.60
2023-02-22T06:46:11.291Z,55.51
2023-02-22T06:48:40.561Z,55.42
2023-02-22T06:51:09.868Z,54.98
2023-02-22T06:53:38.239Z,54.93
2023-02-22T06:56:06.833Z,54.31
2023-02-22T06:58:35.201Z,54.02
2023-02-22T07:01:04.315Z,53.26
2023-02-22T07:03:32.619Z,52.75
2023-02-22T07:06:00.638Z,52.68
2023-02-22T07:08:29.553Z,51.87
2023-02-22T07:10:57.807Z,51.45
2023-02-22T07:13:25.985Z,51.48
2023-02-22T07:15:54.063Z,50.96
2023-02-22T07:18:22.445Z,51.15
2023-02-22T07:20:50.616Z,51.42
2023-02-22T07:23:18.790Z,50.56
2023-02-22T07:25:46.861Z,49.75
2023-02-22T07:28:15.031Z,49.90
2023-02-22T07:30:43.812Z,49.69
2023-02-22T07:33:13.531Z,49.56
2023-02-22T07:35:50.142Z,49.65
2023-02-22T07:38:20.540Z,48.41
2023-02-22T07:40:48.782Z,46.98
2023-02-22T07:43:28.146Z,46.43
2023-02-22T07:45:59.206Z,47.03
2023-02-22T07:48:29.089Z,46.11
2023-02-22T07:50:58.180Z,44.61
2023-02-22T07:53:30.352Z,45.32
2023-02-22T07:55:59.746Z,46.04
2023-02-22T07:58:29.553Z,45.92
2023-02-22T08:00:58.432Z,45.60
2023-02-22T08:03:26.872Z,45.50
2023-02-22T08:05:57.820Z,46.02
2023-02-22T08:08:25.861Z,46.42
2023-02-22T08:10:53.940Z,46.06
2023-02-22T08:13:23.338Z,45.52
2023-02-22T08:15:53.871Z,44.03
2023-02-22T08:18:23.889Z,44.00
2023-02-22T08:20:53.420Z,43.97
2023-02-22T08:23:25.469Z,43.99
2023-02-22T08:25:53.835Z,43.71
2023-02-22T08:28:24.238Z,42.91
2023-02-22T08:30:52.890Z,42.51
2023-02-22T08:33:21.323Z,42.60
2023-02-22T08:35:50.531Z,42.51
2023-02-22T08:38:23.450Z,41.81
2023-02-22T08:40:51.938Z,41.48
2023-02-22T08:43:21.260Z,41.01
2023-02-22T08:45:50.085Z,40.85
2023-02-22T08:48:19.152Z,40.59
2023-02-22T08:50:47.450Z,39.79
2023-02-22T08:53:16.897Z,38.51
2023-02-22T08:55:45.337Z,37.94
2023-02-22T08:58:14.343Z,37.60
2023-02-22T09:00:44.728Z,36.88
2023-02-22T09:03:15.140Z,37.00
2023-02-22T09:05:44.859Z,36.85
2023-02-22T09:08:13.484Z,36.20
2023-02-22T09:10:41.936Z,35.57
2023-02-22T09:13:09.940Z,35.86
2023-02-22T09:15:39.894Z,36.17
2023-02-22T09:18:10.114Z,36.29
2023-02-22T09:20:38.097Z,36.21
2023-02-22T09:23:09.893Z,35.53
2023-02-22T09:25:41.744Z,34.44
2023-02-22T09:28:11.459Z,35.03
2023-02-22T09:30:39.624Z,34.20
2023-02-22T09:33:14.230Z,34.67
2023-02-22T09:35:47.453Z,34.25
2023-02-22T09:38:23.123Z,34.39
2023-02-22T09:40:57.222Z,34.44
2023-02-22T09:44:00.008Z,35.04
2023-02-22T09:46:30.885Z,35.34
2023-02-22T09:49:07.728Z,35.86
2023-02-22T09:51:55.746Z,36.10
2023-02-22T09:54:34.359Z,36.41
2023-02-22T09:57:10.874Z,36.51
2023-02-22T10:00:14.340Z,36.62
2023-02-22T10:03:09.289Z,37.39
2023-02-22T10:05:39.982Z,37.59
2023-02-22T10:08:13.803Z,37.53
2023-02-22T10:10:48.889Z,37.65
2023-02-22T10:13:42.258Z,37.76
2023-02-22T10:16:32.807Z,37.18
2023-02-22T10:19:01.425Z,36.55
2023-02-22T10:21:53.801Z,36.63
2023-02-22T10:24:40.614Z,35.76
2023-02-22T10:27:29.355Z,35.19
2023-02-22T10:30:24.921Z,34.68
2023-02-22T10:33:22.727Z,34.64
2023-02-22T10:35:51.635Z,34.27
2023-02-22T10:38:27.434Z,33.22
2023-02-22T10:41:10.824Z,32.75
2023-02-22T10:43:41.119Z,31.97
2023-02-22T10:46:15.568Z,31.29
2023-02-22T10:48:47.856Z,30.90
2023-02-22T10:51:16.129Z,30.91
2023-02-22T10:53:45.849Z,29.64
2023-02-22T10:56:22.358Z,29.54
2023-02-22T10:58:57.820Z,29.24
2023-02-22T11:01:32.607Z,29.05
2023-02-22T11:04:10.491Z,29.27
2023-02-22T11:06:40.894Z,29.00
2023-02-22T11:09:15.900Z,28.35
2023-02-22T11:11:49.304Z,26.92
2023-02-22T11:14:31.079Z,25.72
2023-02-22T11:17:00.885Z,24.26
2023-02-22T11:19:50.442Z,22.80
2023-02-22T11:22:55.046Z,22.40
2023-02-22T11:25:27.947Z,21.63
2023-02-22T11:28:09.353Z,19.95
2023-02-22T11:30:38.589Z,20.09
2023-02-22T11:33:15.606Z,18.96
2023-02-22T11:36:05.075Z,17.85
2023-02-22T11:38:37.025Z,17.35
2023-02-22T11:41:08.016Z,17.18
2023-02-22T11:43:36.135Z,16.45
2023-02-22T11:46:13.259Z,16.58
2023-02-22T11:48:48.578Z,16.62
2023-02-22T11:51:35.752Z,16.34
2023-02-22T11:54:31.378Z,16.55
2023-02-22T11:57:07.264Z,16.65
2023-02-22T11:59:48.802Z,17.01
2023-02-22T12:02:33.388Z,16.85
2023-02-22T12:05:37.287Z,16.86
2023-02-22T12:08:25.948Z,17.00
2023-02-22T12:10:55.481Z,16.21
2023-02-22T12:13:42.138Z,16.22
2023-02-22T12:16:44.363Z,16.52
2023-02-22T12:19:25.437Z,16.31
2023-02-22T12:21:58.520Z,16.26
2023-02-22T12:24:34.413Z,16.52
2023-02-22T12:27:10.240Z,16.76
2023-02-22T12:29:47.901Z,16.87
2023-02-22T12:32:29.288Z,17.45
2023-02-22T12:35:10.129Z,17.54
2023-02-22T12:38:09.538Z,17.03
2023-02-22T12:40:45.165Z,17.91
2023-02-22T12:43:16.922Z,17.94
2023-02-22T12:46:00.304Z,18.85
2023-02-22T12:48:31.874Z,19.78
2023-02-22T12:51:22.099Z,20.81
2023-02-22T12:54:02.078Z,22.18
2023-02-22T12:56:46.684Z,22.99
2023-02-22T12:59:14.635Z,23.90
2023-02-22T13:01:45.951Z,25.01
2023-02-22T13:04:20.973Z,25.80
2023-02-22T13:06:58.386Z,25.91
2023-02-22T13:09:29.095Z,26.99
2023-02-22T13:12:19.402Z,27.84
2023-02-22T13:15:09.621Z,28.58
2023-02-22T13:17:55.455Z,28.58
2023-02-22T13:20:29.273Z,27.97
2023-02-22T13:23:03.373Z,27.85
2023-02-22T13:25:34.411Z,27.91
2023-02-22T13:28:33.370Z,28.54
2023-02-22T13:31:11.441Z,29.07
2023-02-22T13:33:50.215Z,29.85
2023-02-22T13:36:37.765Z,30.14
2023-02-22T13:39:28.662Z,30.23
2023-02-22T13:42:02.747Z,28.97
2023-02-22T13:44:36.657Z,27.89
2023-02-22T13:47:41.878Z,27.62
2023-02-22T13:50:49.346Z,27.44
2023-02-22T13:53:22.943Z,26.41
2023-02-22T13:55:58.574Z,26.11
2023-02-22T13:58:27.465Z,25.73
2023-02-22T14:00:59.626Z,25.29
2023-02-22T14:03:36.057Z,24.95
2023-02-22T14:06:06.006Z,25.33
2023-02-22T14:08:33.955Z,25.46
2023-02-22T14:11:12.751Z,25.36
2023-02-22T14:13:57.229Z,25.42
2023-02-22T14:16:27.848Z,25.60
2023-02-22T14:19:15.454Z,25.89
2023-02-22T14:22:06.294Z,25.59
2023-02-22T14:24:46.907Z,25.62
2023-02-22T14:27:17.625Z,25.77
2023-02-22T14:30:00.557Z,26.17
2023-02-22T14:32:35.094Z,26.52
2023-02-22T14:35:26.515Z,26.47
2023-02-22T14:38:01.006Z,26.83
2023-02-22T14:40:36.448Z,27.21
2023-02-22T14:43:15.224Z,27.54
2023-02-22T14:45:52.322Z,28.27
2023-02-22T22:47:28.793Z,61.13
2023-02-22T22:50:01.660Z,61.14
2023-02-22T22:52:34.025Z,61.40
2023-02-22T22:55:03.070Z,61.49
2023-02-22T22:57:31.009Z,61.33
2023-02-22T23:00:00.513Z,61.16
2023-02-22T23:02:30.897Z,62.02
2023-02-22T23:04:59.116Z,61.74
2023-02-22T23:07:27.219Z,61.97
2023-02-22T23:09:56.662Z,61.69
2023-02-22T23:12:31.627Z,61.42
2023-02-22T23:14:59.691Z,61.70
2023-02-22T23:17:31.672Z,61.77
2023-02-22T23:19:59.825Z,62.02
2023-02-22T23:22:28.110Z,62.03
2023-02-22T23:24:58.126Z,61.79
2023-02-22T23:27:26.194Z,62.25
2023-02-22T23:29:54.215Z,62.86
2023-02-22T23:32:22.370Z,63.66
2023-02-22T23:34:50.645Z,63.31
2023-02-22T23:37:20.908Z,62.89
2023-02-22T23:39:51.207Z,62.57
2023-02-22T23:42:19.339Z,62.93
2023-02-22T23:44:48.113Z,62.76
2023-02-22T23:47:16.400Z,62.70
2023-02-22T23:49:49.658Z,62.56
2023-02-22T23:52:24.420Z,62.67
2023-02-22T23:54:54.239Z,61.90
2023-02-22T23:57:24.873Z,62.58
2023-02-22T23:59:52.943Z,62.08
